Time;durP1;ratioP1;P1;durP2;ratioP2;P2;SDS_P1;SDS_P2;PMS_P1;PMS_P2;Temp;Humidity;BMP_temperature;BMP_pressure;BME280_temperature;BME280_humidity;BME280_pressure;Samples;Min_cycle;Max_cycle;Signal;HPM_P1;HPM_P2
2023/04/09 00:02:13;;;;;;;55.80;36.33;;;7.80;99.90;;;;;;4878634;29;20516;-71
2023/04/09 00:04:38;;;;;;;53.80;35.60;;;7.80;99.90;;;;;;4880739;29;20477;-71
2023/04/09 00:07:04;;;;;;;60.93;37.97;;;7.80;99.90;;;;;;4879783;29;20440;-71
2023/04/09 00:09:30;;;;;;;59.77;37.80;;;7.80;99.90;;;;;;4879835;29;20052;-71
2023/04/09 00:11:57;;;;;;;60.83;37.95;;;7.80;99.90;;;;;;4880095;29;20489;-71
2023/04/09 00:14:23;;;;;;;64.00;38.92;;;7.80;99.90;;;;;;4880550;29;20044;-71
2023/04/09 00:16:48;;;;;;;63.25;38.65;;;7.80;99.90;;;;;;4879754;29;20060;-71
2023/04/09 00:19:14;;;;;;;59.90;38.67;;;7.90;99.90;;;;;;4876101;29;20071;-71
2023/04/09 00:21:40;;;;;;;60.33;38.43;;;7.80;99.90;;;;;;4877599;29;20080;-71
2023/04/09 00:24:07;;;;;;;57.67;38.57;;;7.80;99.90;;;;;;4879639;29;20534;-71
2023/04/09 00:26:32;;;;;;;62.58;39.92;;;7.80;99.90;;;;;;4879122;29;20041;-71
2023/04/09 00:28:58;;;;;;;59.03;38.50;;;7.80;99.90;;;;;;4863412;29;20646;-71
2023/04/09 00:31:24;;;;;;;60.67;39.13;;;7.90;99.90;;;;;;4877824;29;20055;-71
2023/04/09 00:33:50;;;;;;;59.00;38.13;;;7.80;99.90;;;;;;4879681;29;20107;-71
2023/04/09 00:36:15;;;;;;;65.10;41.63;;;7.80;99.90;;;;;;4893398;29;20140;-71
2023/04/09 00:38:41;;;;;;;63.37;39.83;;;7.80;99.90;;;;;;4879798;29;20032;-71
2023/04/09 00:41:07;;;;;;;60.63;39.67;;;7.80;99.90;;;;;;4876279;29;20597;-71
2023/04/09 00:43:32;;;;;;;63.57;40.20;;;7.90;99.90;;;;;;4873226;29;20385;-71
2023/04/09 00:45:59;;;;;;;60.10;38.30;;;7.90;99.90;;;;;;4871990;29;20040;-71
2023/04/09 00:48:25;;;;;;;64.15;39.92;;;7.90;99.90;;;;;;4879403;29;20398;-71
2023/04/09 00:50:51;;;;;;;62.72;38.58;;;7.90;99.90;;;;;;4877363;29;20485;-71
2023/04/09 00:53:17;;;;;;;61.37;38.17;;;7.90;99.90;;;;;;4878475;29;20196;-71
2023/04/09 00:55:44;;;;;;;63.07;39.50;;;7.90;99.90;;;;;;4878683;29;20045;-71
2023/04/09 00:58:10;;;;;;;64.43;39.92;;;7.90;99.90;;;;;;4878123;29;20048;-71
2023/04/09 01:00:36;;;;;;;65.67;39.23;;;7.90;99.90;;;;;;4877170;29;20044;-71
2023/04/09 01:03:04;;;;;;;63.83;39.20;;;7.90;99.90;;;;;;4874434;29;20052;-71
2023/04/09 01:05:57;;;;;;;66.30;40.90;;;7.90;99.90;;;;;;4875917;29;20049;-71
2023/04/09 01:08:39;;;;;;;68.03;41.70;;;7.90;99.90;;;;;;4862922;29;20044;-71
2023/04/09 01:11:26;;;;;;;63.58;40.15;;;7.90;99.90;;;;;;4893378;29;20047;-71
2023/04/09 01:14:26;;;;;;;61.13;39.63;;;7.90;99.90;;;;;;4877701;29;20040;-71
2023/04/09 01:17:00;;;;;;;66.25;39.65;;;7.90;99.90;;;;;;4872791;29;20044;-71
2023/04/09 01:19:53;;;;;;;63.70;40.67;;;7.90;99.90;;;;;;4878576;29;20057;-71
2023/04/09 01:22:31;;;;;;;66.00;40.38;;;7.90;99.90;;;;;;4875714;29;20040;-71
2023/04/09 01:25:06;;;;;;;63.63;40.10;;;7.90;99.90;;;;;;4870845;29;20084;-71
2023/04/09 01:27:52;;;;;;;66.25;40.85;;;7.90;99.90;;;;;;4878050;29;20052;-71
2023/04/09 01:30:19;;;;;;;63.58;39.88;;;7.90;99.90;;;;;;4876493;29;20050;-71
2023/04/09 01:32:45;;;;;;;63.35;40.13;;;7.90;99.90;;;;;;4874550;29;20044;-71
2023/04/09 01:35:12;;;;;;;66.13;39.40;;;7.90;99.90;;;;;;4879619;29;20045;-71
2023/04/09 01:37:39;;;;;;;62.75;40.75;;;7.90;99.90;;;;;;4877473;29;20478;-71
2023/04/09 01:40:06;;;;;;;62.72;39.25;;;7.90;99.90;;;;;;4876677;29;20525;-71
2023/04/09 01:42:32;;;;;;;65.88;39.65;;;7.90;99.90;;;;;;4857936;29;20045;-71
2023/04/09 01:44:59;;;;;;;60.60;38.77;;;7.90;99.90;;;;;;4875868;29;20037;-71
2023/04/09 01:47:26;;;;;;;61.50;38.67;;;7.90;99.90;;;;;;4876113;29;20517;-71
2023/04/09 01:49:52;;;;;;;60.70;39.35;;;7.90;99.90;;;;;;4877982;29;20048;-71
2023/04/09 01:52:19;;;;;;;59.92;38.15;;;7.90;99.90;;;;;;4876453;29;20123;-71
2023/04/09 01:54:44;;;;;;;59.67;37.58;;;7.90;99.90;;;;;;4869772;29;20048;-71
2023/04/09 01:57:10;;;;;;;64.20;39.43;;;7.90;99.90;;;;;;4877434;29;20044;-71
2023/04/09 01:59:36;;;;;;;57.87;37.47;;;7.90;99.90;;;;;;4876300;29;20040;-71
2023/04/09 02:02:12;;;;;;;61.87;37.67;;;7.90;99.90;;;;;;4875400;29;20509;-71
2023/04/09 02:04:47;;;;;;;66.72;37.08;;;7.90;99.90;;;;;;4859571;29;20052;-71
2023/04/09 02:07:33;;;;;;;67.50;37.17;;;7.90;99.90;;;;;;4872026;29;20052;-71
2023/04/09 02:10:00;;;;;;;64.75;37.70;;;7.90;99.90;;;;;;4876338;29;20107;-71
2023/04/09 02:12:28;;;;;;;70.97;39.25;;;7.90;99.90;;;;;;4862244;29;20044;-71
2023/04/09 02:14:54;;;;;;;72.50;39.47;;;7.90;99.90;;;;;;4878003;29;20056;-71
2023/04/09 02:17:20;;;;;;;72.28;41.10;;;7.80;99.90;;;;;;4877510;29;20048;-71
2023/04/09 02:19:47;;;;;;;73.30;39.60;;;7.80;99.90;;;;;;4891344;29;20052;-71
2023/04/09 02:22:13;;;;;;;70.05;38.58;;;7.80;99.90;;;;;;4876845;29;20053;-71
2023/04/09 02:24:40;;;;;;;69.75;40.33;;;7.80;99.90;;;;;;4876275;29;20051;-71
2023/04/09 02:27:06;;;;;;;76.93;42.60;;;7.80;99.90;;;;;;4862495;29;20041;-71
2023/04/09 02:29:32;;;;;;;77.20;41.17;;;7.80;99.90;;;;;;4875869;29;20048;-71
2023/04/09 02:31:58;;;;;;;74.93;40.60;;;7.80;99.90;;;;;;4869700;29;20402;-71
2023/04/09 02:34:24;;;;;;;77.10;42.57;;;7.80;99.90;;;;;;4876948;29;20048;-71
2023/04/09 02:36:50;;;;;;;77.77;42.77;;;7.80;99.90;;;;;;4879083;29;20054;-71
2023/04/09 02:39:15;;;;;;;77.90;42.37;;;7.80;99.90;;;;;;4877777;29;20040;-71
2023/04/09 02:41:41;;;;;;;79.40;44.27;;;7.80;99.90;;;;;;4876957;29;20048;-71
2023/04/09 02:44:07;;;;;;;81.43;43.57;;;7.70;99.90;;;;;;4876725;29;20044;-70
2023/04/09 02:46:32;;;;;;;84.23;45.63;;;7.70;99.90;;;;;;4876958;29;20129;-70
2023/04/09 02:48:58;;;;;;;82.87;43.50;;;7.70;99.90;;;;;;4860360;29;20043;-70
2023/04/09 02:51:24;;;;;;;85.50;44.93;;;7.70;99.90;;;;;;4877682;29;20048;-71
2023/04/09 02:53:49;;;;;;;84.03;43.67;;;7.70;99.90;;;;;;4859904;29;20472;-71
2023/04/09 02:56:15;;;;;;;82.60;42.50;;;7.60;99.90;;;;;;4867263;29;20045;-71
2023/04/09 02:58:41;;;;;;;77.37;41.03;;;7.60;99.90;;;;;;4875621;29;20044;-71
2023/04/09 03:01:06;;;;;;;81.67;40.83;;;7.60;99.90;;;;;;4877357;29;20076;-71
2023/04/09 03:03:32;;;;;;;74.63;39.00;;;7.60;99.90;;;;;;4873046;29;20105;-71
2023/04/09 03:05:58;;;;;;;71.27;38.20;;;7.50;99.90;;;;;;4877611;29;20136;-71
2023/04/09 03:08:23;;;;;;;73.23;37.53;;;7.50;99.90;;;;;;4876894;29;20048;-71
2023/04/09 03:10:49;;;;;;;72.53;39.17;;;7.50;99.90;;;;;;4875178;29;20051;-71
2023/04/09 03:13:15;;;;;;;70.63;38.03;;;7.50;99.90;;;;;;4876584;29;20048;-71
2023/04/09 03:15:40;;;;;;;67.80;36.53;;;7.50;99.90;;;;;;4877340;29;20128;-71
2023/04/09 03:18:06;;;;;;;71.57;37.23;;;7.40;99.90;;;;;;4861574;29;21064;-71
2023/04/09 03:20:32;;;;;;;72.50;36.67;;;7.40;99.90;;;;;;4877423;29;20059;-71
2023/04/09 03:22:58;;;;;;;70.00;37.43;;;7.40;99.90;;;;;;4875747;29;20489;-71
2023/04/09 03:25:23;;;;;;;72.57;38.60;;;7.40;99.90;;;;;;4872767;29;20056;-71
2023/04/09 03:27:49;;;;;;;74.80;40.37;;;7.40;99.90;;;;;;4877372;29;20040;-71
2023/04/09 03:30:15;;;;;;;74.10;38.13;;;7.40;99.90;;;;;;4876268;29;20048;-71
2023/04/09 03:32:40;;;;;;;71.60;37.60;;;7.40;99.90;;;;;;4877466;29;20663;-71
2023/04/09 03:35:07;;;;;;;68.30;37.80;;;7.40;99.90;;;;;;4876499;29;20052;-71
2023/04/09 03:37:32;;;;;;;72.35;38.53;;;7.40;99.90;;;;;;4874047;29;20386;-70
2023/04/09 03:39:58;;;;;;;69.07;36.47;;;7.40;99.90;;;;;;4876585;29;20359;-71
2023/04/09 03:42:24;;;;;;;70.23;37.33;;;7.40;99.90;;;;;;4858624;29;20477;-71
2023/04/09 03:44:52;;;;;;;73.50;38.90;;;7.40;99.90;;;;;;4875008;29;20065;-71
2023/04/09 03:47:18;;;;;;;69.18;36.72;;;7.40;99.90;;;;;;4875776;29;20057;-71
2023/04/09 03:49:44;;;;;;;66.10;36.80;;;7.40;99.90;;;;;;4861447;29;20052;-71
2023/04/09 03:52:09;;;;;;;63.07;34.67;;;7.30;99.90;;;;;;4878078;29;20045;-71
2023/04/09 03:54:35;;;;;;;61.57;33.77;;;7.30;99.90;;;;;;4874048;29;20048;-71
2023/04/09 03:57:02;;;;;;;63.87;34.17;;;7.30;99.90;;;;;;4859176;29;20048;-71
2023/04/09 03:59:28;;;;;;;64.28;34.13;;;7.30;99.90;;;;;;4857017;29;20048;-71
2023/04/09 04:01:53;;;;;;;62.53;35.43;;;7.30;99.90;;;;;;4875689;29;20033;-71
2023/04/09 04:04:19;;;;;;;68.67;34.97;;;7.30;99.90;;;;;;4859957;29;20451;-71
2023/04/09 04:06:45;;;;;;;71.10;35.27;;;7.30;99.90;;;;;;4875173;29;20116;-71
2023/04/09 04:09:11;;;;;;;66.07;35.43;;;7.30;99.90;;;;;;4870449;29;20490;-71
2023/04/09 04:11:36;;;;;;;63.93;33.57;;;7.30;99.90;;;;;;4877351;29;20036;-71
2023/04/09 04:14:02;;;;;;;63.50;34.20;;;7.30;99.90;;;;;;4876502;29;20056;-71
2023/04/09 04:16:28;;;;;;;65.53;33.37;;;7.30;99.90;;;;;;4861223;29;20133;-71
2023/04/09 04:18:53;;;;;;;64.33;33.33;;;7.20;99.90;;;;;;4879676;29;20029;-71
2023/04/09 04:21:19;;;;;;;67.70;34.53;;;7.20;99.90;;;;;;4860452;29;20052;-71
2023/04/09 04:23:45;;;;;;;65.13;33.40;;;7.20;99.90;;;;;;4870398;29;20532;-71
2023/04/09 04:26:11;;;;;;;72.20;35.73;;;7.20;99.90;;;;;;4875050;29;20117;-71
2023/04/09 04:28:37;;;;;;;64.80;33.43;;;7.20;99.90;;;;;;4876442;29;20052;-71
2023/04/09 04:31:10;;;;;;;68.00;34.70;;;7.10;99.90;;;;;;4876831;29;20044;-71
2023/04/09 04:33:37;;;;;;;66.05;33.75;;;7.10;99.90;;;;;;4880285;29;20049;-71
2023/04/09 04:36:07;;;;;;;72.93;33.97;;;7.10;99.90;;;;;;4860195;29;20059;-71
2023/04/09 04:38:34;;;;;;;65.28;34.55;;;7.10;99.90;;;;;;4880120;29;20100;-71
2023/04/09 04:41:00;;;;;;;64.57;34.22;;;7.10;99.90;;;;;;4861676;29;20032;-71
2023/04/09 04:43:26;;;;;;;61.25;33.90;;;7.10;99.90;;;;;;4879534;29;20052;-71
2023/04/09 04:45:51;;;;;;;65.90;33.97;;;7.10;99.90;;;;;;4864071;29;20045;-71
2023/04/09 04:48:17;;;;;;;64.23;33.80;;;7.10;99.90;;;;;;4879924;29;20256;-71
2023/04/09 04:50:43;;;;;;;67.67;34.23;;;7.10;99.90;;;;;;4865040;29;20040;-71
2023/04/09 04:53:08;;;;;;;66.53;34.67;;;7.10;99.90;;;;;;4869548;29;20078;-71
2023/04/09 04:55:35;;;;;;;63.60;32.90;;;7.10;99.90;;;;;;4876363;29;20044;-71
2023/04/09 04:58:01;;;;;;;59.50;31.88;;;7.10;99.90;;;;;;4879808;29;20063;-71
2023/04/09 05:00:26;;;;;;;63.90;33.17;;;7.10;99.90;;;;;;4862831;29;20037;-71
2023/04/09 05:02:52;;;;;;;62.23;31.77;;;7.10;99.90;;;;;;4854238;29;20075;-71
2023/04/09 05:05:18;;;;;;;62.70;31.53;;;7.10;99.90;;;;;;4876656;29;20493;-71
2023/04/09 05:07:43;;;;;;;67.40;33.10;;;7.10;99.90;;;;;;4878350;29;20517;-71
2023/04/09 05:10:09;;;;;;;60.30;31.57;;;7.10;99.90;;;;;;4875342;29;20044;-70
2023/04/09 05:12:35;;;;;;;60.47;32.33;;;7.10;99.90;;;;;;4877547;29;20048;-71
2023/04/09 05:15:01;;;;;;;61.87;31.53;;;7.10;99.90;;;;;;4877108;29;20292;-71
2023/04/09 05:17:27;;;;;;;60.53;32.42;;;7.20;99.90;;;;;;4877940;29;20119;-71
2023/04/09 05:19:53;;;;;;;62.33;32.33;;;7.20;99.90;;;;;;4878276;29;20147;-71
2023/04/09 05:22:19;;;;;;;60.58;31.08;;;7.20;99.90;;;;;;4861233;29;20045;-71
2023/04/09 05:24:45;;;;;;;57.97;30.70;;;7.10;99.90;;;;;;4876193;29;20044;-71
2023/04/09 05:27:11;;;;;;;58.97;30.47;;;7.20;99.90;;;;;;4859541;29;20104;-71
2023/04/09 05:29:36;;;;;;;58.17;30.67;;;7.20;99.90;;;;;;4878749;29;20492;-71
2023/04/09 05:32:02;;;;;;;55.30;30.60;;;7.20;99.90;;;;;;4879043;29;20055;-71
2023/04/09 05:34:28;;;;;;;60.67;30.58;;;7.20;99.90;;;;;;4863580;29;20059;-71
2023/04/09 05:36:54;;;;;;;54.70;28.27;;;7.20;99.90;;;;;;4878772;29;20519;-71
2023/04/09 05:39:20;;;;;;;51.87;28.80;;;7.20;99.90;;;;;;4879092;29;20032;-71
2023/04/09 05:41:46;;;;;;;53.70;28.30;;;7.20;99.90;;;;;;4877563;29;20033;-71
2023/04/09 05:44:11;;;;;;;55.80;29.27;;;7.20;99.90;;;;;;4870111;29;20067;-71
2023/04/09 05:46:37;;;;;;;54.53;29.27;;;7.30;99.90;;;;;;4876925;29;20045;-70
2023/04/09 05:49:03;;;;;;;54.00;28.77;;;7.20;99.90;;;;;;4868410;29;20040;-71
2023/04/09 05:51:29;;;;;;;52.07;28.53;;;7.30;99.90;;;;;;4878086;29;20045;-71
2023/04/09 05:53:55;;;;;;;56.13;28.80;;;7.30;99.90;;;;;;4872958;29;20049;-71
2023/04/09 05:56:23;;;;;;;51.43;28.23;;;7.30;99.90;;;;;;4877730;29;20609;-71
2023/04/09 05:58:49;;;;;;;53.38;28.90;;;7.30;99.90;;;;;;4877196;29;20077;-71
2023/04/09 06:01:14;;;;;;;54.47;29.60;;;7.30;99.90;;;;;;4878959;29;20048;-71
2023/04/09 06:03:40;;;;;;;51.77;28.87;;;7.30;99.90;;;;;;4878354;29;20039;-71
2023/04/09 06:06:06;;;;;;;50.47;28.00;;;7.30;99.90;;;;;;4875753;29;20554;-71
2023/04/09 06:08:31;;;;;;;51.10;27.70;;;7.30;99.90;;;;;;4856008;29;20154;-71
2023/04/09 06:10:58;;;;;;;52.10;28.03;;;7.40;99.90;;;;;;4876135;29;20660;-71
2023/04/09 06:13:23;;;;;;;51.35;27.40;;;7.40;99.90;;;;;;4873839;29;20051;-71
2023/04/09 06:15:49;;;;;;;46.70;27.40;;;7.40;99.90;;;;;;4876638;29;20052;-71
2023/04/09 06:18:16;;;;;;;48.10;28.40;;;7.40;99.90;;;;;;4861365;29;20100;-71
2023/04/09 06:20:41;;;;;;;45.60;26.42;;;7.50;99.90;;;;;;4879541;29;20054;-71
2023/04/09 06:23:07;;;;;;;47.33;27.10;;;7.50;99.90;;;;;;4858264;29;20044;-71
2023/04/09 06:25:34;;;;;;;46.33;27.87;;;7.50;99.90;;;;;;4878299;29;20116;-71
2023/04/09 06:27:59;;;;;;;45.63;27.05;;;7.50;99.90;;;;;;4877860;29;20047;-71
2023/04/09 06:30:25;;;;;;;50.10;27.60;;;7.50;99.90;;;;;;4877967;29;20155;-71
2023/04/09 06:32:51;;;;;;;48.15;26.88;;;7.60;99.90;;;;;;4878691;29;20537;-71
2023/04/09 06:35:17;;;;;;;44.27;25.67;;;7.60;99.90;;;;;;4878502;29;20056;-71
2023/04/09 06:37:42;;;;;;;46.33;26.80;;;7.60;99.90;;;;;;4858219;29;20135;-71
2023/04/09 06:40:08;;;;;;;44.20;26.30;;;7.60;99.90;;;;;;4878338;29;20049;-71
2023/04/09 06:42:35;;;;;;;51.25;26.77;;;7.70;99.90;;;;;;4870491;29;20059;-71
2023/04/09 06:45:01;;;;;;;45.35;26.70;;;7.70;99.90;;;;;;4875402;29;20064;-71
2023/04/09 06:47:26;;;;;;;43.80;26.53;;;7.70;99.90;;;;;;4877105;29;20406;-71
2023/04/09 06:49:52;;;;;;;44.87;26.17;;;7.70;99.90;;;;;;4875608;29;20465;-71
2023/04/09 06:52:18;;;;;;;45.43;27.03;;;7.70;99.90;;;;;;4875783;29;20079;-71
2023/04/09 06:54:44;;;;;;;46.03;27.20;;;7.70;99.90;;;;;;4860517;29;20197;-71
2023/04/09 06:57:10;;;;;;;43.88;26.23;;;7.70;99.90;;;;;;4868605;29;20044;-71
2023/04/09 06:59:36;;;;;;;46.47;26.77;;;7.70;99.90;;;;;;4876758;29;20049;-71
2023/04/09 07:02:02;;;;;;;45.23;27.33;;;7.70;99.90;;;;;;4886697;29;20044;-71
2023/04/09 07:04:28;;;;;;;41.37;25.43;;;7.70;99.90;;;;;;4875375;29;20095;-71
2023/04/09 07:06:55;;;;;;;43.33;26.07;;;7.70;99.90;;;;;;4862406;29;20041;-71
2023/04/09 07:09:21;;;;;;;46.78;26.83;;;7.70;99.90;;;;;;4872548;29;20108;-71
2023/04/09 07:11:46;;;;;;;41.67;25.80;;;7.70;99.90;;;;;;4877149;29;20044;-71
2023/04/09 07:14:12;;;;;;;50.43;27.87;;;7.70;99.90;;;;;;4877307;29;20056;-71
2023/04/09 07:16:38;;;;;;;46.77;27.37;;;7.70;99.90;;;;;;4875676;29;20497;-71
2023/04/09 07:19:06;;;;;;;47.17;27.00;;;7.70;99.90;;;;;;4876106;29;20045;-71
2023/04/09 07:21:32;;;;;;;44.75;26.85;;;7.70;99.90;;;;;;4874402;29;20061;-71
2023/04/09 07:23:57;;;;;;;46.47;27.02;;;7.70;99.90;;;;;;4876297;29;20313;-71
2023/04/09 07:26:23;;;;;;;44.50;26.17;;;7.80;99.90;;;;;;4861217;29;20055;-71
2023/04/09 07:28:49;;;;;;;43.43;26.07;;;7.80;99.90;;;;;;4876213;29;20056;-71
2023/04/09 07:31:15;;;;;;;43.70;27.07;;;7.80;99.90;;;;;;4875606;29;20041;-71
2023/04/09 07:33:41;;;;;;;46.57;26.87;;;7.80;99.90;;;;;;4860946;29;20037;-71
2023/04/09 07:36:07;;;;;;;46.87;28.17;;;7.80;99.90;;;;;;4884881;29;20128;-70
2023/04/09 07:38:33;;;;;;;46.65;27.55;;;7.80;99.90;;;;;;4870343;29;20480;-71
2023/04/09 07:41:00;;;;;;;45.88;28.30;;;7.80;99.90;;;;;;4876577;29;20195;-72
2023/04/09 07:43:25;;;;;;;45.25;27.90;;;7.80;99.90;;;;;;4875826;29;20093;-72
2023/04/09 07:45:51;;;;;;;47.53;27.13;;;7.80;99.90;;;;;;4875649;29;20513;-71
2023/04/09 07:48:17;;;;;;;49.67;28.50;;;7.80;99.90;;;;;;4870904;29;20051;-72
2023/04/09 07:50:44;;;;;;;47.07;27.47;;;7.80;99.90;;;;;;4873072;29;20536;-71
2023/04/09 07:53:10;;;;;;;50.03;28.17;;;7.80;99.90;;;;;;4876385;29;20049;-72
2023/04/09 07:55:36;;;;;;;49.47;27.73;;;7.80;99.90;;;;;;4867142;29;20051;-71
2023/04/09 07:58:03;;;;;;;47.65;28.92;;;7.80;99.90;;;;;;4870683;29;20087;-71
2023/04/09 08:00:29;;;;;;;48.80;26.90;;;7.80;99.90;;;;;;4876966;29;20047;-71
2023/04/09 08:02:56;;;;;;;51.40;28.00;;;7.80;99.90;;;;;;4876311;29;20036;-71
2023/04/09 08:05:22;;;;;;;48.20;27.00;;;7.90;99.90;;;;;;4871274;29;20557;-71
2023/04/09 08:07:49;;;;;;;46.65;27.73;;;7.90;99.90;;;;;;4878636;29;20083;-71
2023/04/09 08:10:15;;;;;;;50.80;28.83;;;7.90;99.90;;;;;;4875347;29;20041;-71
2023/04/09 08:12:41;;;;;;;48.88;28.75;;;7.90;99.90;;;;;;4877102;29;20493;-71
2023/04/09 08:15:08;;;;;;;50.97;28.90;;;8.00;99.90;;;;;;4874140;29;20044;-72
2023/04/09 08:17:35;;;;;;;51.58;28.73;;;8.00;99.90;;;;;;4874746;29;20044;-71
2023/04/09 08:20:02;;;;;;;48.75;28.30;;;8.00;99.90;;;;;;4874201;29;20159;-72
2023/04/09 08:22:28;;;;;;;46.15;28.33;;;8.10;99.90;;;;;;4879132;29;20540;-71
2023/04/09 08:24:56;;;;;;;48.13;28.17;;;8.10;99.90;;;;;;4875015;29;20050;-72
2023/04/09 08:27:21;;;;;;;48.47;28.25;;;8.10;99.90;;;;;;4877558;29;20051;-72
2023/04/09 08:29:47;;;;;;;47.50;28.47;;;8.20;99.90;;;;;;4878521;29;20048;-71
2023/04/09 08:32:13;;;;;;;53.70;29.70;;;8.20;99.90;;;;;;4881429;29;20501;-71
2023/04/09 08:34:39;;;;;;;49.93;28.17;;;8.20;99.90;;;;;;4875461;29;20055;-72
2023/04/09 08:37:05;;;;;;;50.97;29.38;;;8.20;99.90;;;;;;4877276;29;20405;-72
2023/04/09 08:39:31;;;;;;;49.53;29.38;;;8.30;99.90;;;;;;4874375;29;20064;-72
2023/04/09 08:42:01;;;;;;;48.47;28.93;;;8.30;99.90;;;;;;4876333;29;20041;-72
2023/04/09 08:44:28;;;;;;;49.92;28.73;;;8.30;99.90;;;;;;4877284;29;20047;-72
2023/04/09 08:46:54;;;;;;;48.85;28.98;;;8.40;99.90;;;;;;4871670;29;20041;-71
2023/04/09 08:49:20;;;;;;;46.97;28.42;;;8.40;99.90;;;;;;4873305;29;20498;-71
2023/04/09 08:51:49;;;;;;;51.80;28.55;;;8.50;99.90;;;;;;4861238;29;20780;-71
2023/04/09 08:54:18;;;;;;;46.08;27.30;;;8.50;99.90;;;;;;4860837;29;20048;-72
2023/04/09 08:56:45;;;;;;;46.70;27.05;;;8.60;99.90;;;;;;4873198;29;20120;-71
2023/04/09 08:59:16;;;;;;;50.33;29.70;;;8.60;99.90;;;;;;4858519;29;20047;-71
2023/04/09 09:01:42;;;;;;;50.03;28.63;;;8.70;99.90;;;;;;4876390;29;20402;-71
2023/04/09 09:04:08;;;;;;;51.30;28.97;;;8.70;99.90;;;;;;4875788;29;20036;-71
2023/04/09 09:06:37;;;;;;;46.72;28.80;;;8.70;99.90;;;;;;4864599;29;20135;-71
2023/04/09 09:09:11;;;;;;;52.15;30.35;;;8.70;99.90;;;;;;4855034;29;20513;-72
2023/04/09 09:11:42;;;;;;;49.45;29.23;;;8.80;99.90;;;;;;4870406;29;21008;-71
2023/04/09 09:14:10;;;;;;;45.63;27.85;;;8.80;99.90;;;;;;4866906;29;20085;-72
2023/04/09 09:16:43;;;;;;;45.20;28.30;;;8.80;99.90;;;;;;4878126;29;20144;-71
2023/04/09 09:19:24;;;;;;;48.45;28.55;;;8.90;99.90;;;;;;4857857;29;20045;-71
2023/04/09 09:21:57;;;;;;;49.50;29.58;;;8.90;99.90;;;;;;4872462;29;20118;-71
2023/04/09 09:24:23;;;;;;;51.28;30.60;;;8.90;99.90;;;;;;4872919;29;20044;-71
2023/04/09 09:26:49;;;;;;;45.93;28.80;;;8.90;99.90;;;;;;4873272;29;20416;-72
2023/04/09 09:29:14;;;;;;;45.47;28.47;;;9.00;99.90;;;;;;4868875;29;20041;-71
2023/04/09 09:31:48;;;;;;;50.50;29.73;;;9.00;99.90;;;;;;4872767;29;20063;-72
2023/04/09 09:34:18;;;;;;;48.60;29.70;;;9.00;99.90;;;;;;4872781;29;20064;-72
2023/04/09 09:36:45;;;;;;;45.92;28.30;;;9.00;99.90;;;;;;4852781;29;20048;-71
2023/04/09 09:39:12;;;;;;;48.33;28.58;;;9.00;99.90;;;;;;4871386;29;20049;-71
2023/04/09 09:41:41;;;;;;;47.78;29.75;;;9.00;99.90;;;;;;4872859;29;20119;-71
2023/04/09 09:44:08;;;;;;;47.53;29.00;;;9.00;99.90;;;;;;4855690;29;20351;-71
2023/04/09 09:46:37;;;;;;;46.13;27.67;;;9.00;99.90;;;;;;4868567;29;20134;-71
2023/04/09 09:49:03;;;;;;;48.10;30.02;;;9.10;99.90;;;;;;4869847;29;20044;-71
2023/04/09 09:51:31;;;;;;;48.40;28.88;;;9.20;99.90;;;;;;4868816;29;20045;-71
2023/04/09 09:53:57;;;;;;;43.22;28.20;;;9.30;99.90;;;;;;4853569;29;20113;-71
2023/04/09 09:56:31;;;;;;;44.60;27.15;;;9.40;99.90;;;;;;4871162;29;20516;-71
2023/04/09 09:59:14;;;;;;;45.97;27.70;;;9.50;99.90;;;;;;4869808;29;20406;-71
2023/04/09 10:01:40;;;;;;;43.90;28.42;;;9.70;99.90;;;;;;4865220;29;20494;-70
2023/04/09 10:04:12;;;;;;;42.92;27.30;;;9.90;99.90;;;;;;4870940;29;20052;-71
2023/04/09 10:06:41;;;;;;;44.00;27.65;;;9.90;99.90;;;;;;4873921;29;20059;-71
2023/04/09 10:09:08;;;;;;;44.67;28.23;;;10.00;99.90;;;;;;4872217;29;20087;-71
2023/04/09 10:11:36;;;;;;;42.43;27.10;;;10.10;99.90;;;;;;4867876;29;20341;-71
2023/04/09 10:14:03;;;;;;;44.07;28.30;;;10.10;99.90;;;;;;4872007;29;20289;-71
2023/04/09 10:16:30;;;;;;;42.10;27.07;;;10.20;99.90;;;;;;4868228;29;20301;-71
2023/04/09 10:18:57;;;;;;;41.77;27.60;;;10.20;99.90;;;;;;4870015;29;20804;-71
2023/04/09 10:21:40;;;;;;;40.57;26.10;;;10.30;99.90;;;;;;4870300;29;20366;-71
2023/04/09 10:24:08;;;;;;;42.47;27.13;;;10.30;99.90;;;;;;4870458;29;20296;-71
2023/04/09 10:26:35;;;;;;;39.37;26.33;;;10.40;99.90;;;;;;4872651;29;20645;-71
2023/04/09 10:29:08;;;;;;;41.63;26.73;;;10.40;99.90;;;;;;4867598;29;20288;-71
2023/04/09 10:31:51;;;;;;;43.20;27.43;;;10.50;99.90;;;;;;4863576;29;20300;-71
2023/04/09 10:34:19;;;;;;;38.87;26.10;;;10.60;99.90;;;;;;4866269;29;20753;-71
2023/04/09 10:36:48;;;;;;;41.10;27.27;;;10.60;99.90;;;;;;4858371;29;20300;-70
2023/04/09 10:39:14;;;;;;;39.73;25.70;;;10.70;99.90;;;;;;4875642;29;20289;-70
2023/04/09 10:41:41;;;;;;;42.97;26.50;;;10.70;99.90;;;;;;4877680;29;20311;-71
2023/04/09 10:44:27;;;;;;;38.77;25.97;;;10.70;99.90;;;;;;4869563;29;20044;-71
2023/04/09 10:46:53;;;;;;;;;;;10.70;99.90;;;;;;4878155;29;20371;-71
2023/04/09 10:49:25;;;;;;;39.80;25.13;;;10.70;99.90;;;;;;4875143;29;19975;-71
2023/04/09 10:52:12;;;;;;;36.13;24.67;;;10.70;99.90;;;;;;4861994;29;20349;-71
2023/04/09 10:54:45;;;;;;;36.60;25.10;;;10.70;99.90;;;;;;4875928;29;20292;-71
2023/04/09 10:57:18;;;;;;;36.17;24.97;;;10.80;99.90;;;;;;4859549;29;20364;-71
2023/04/09 10:59:46;;;;;;;40.83;26.17;;;10.90;99.90;;;;;;4861332;29;20296;-71
2023/04/09 11:02:39;;;;;;;36.23;24.17;;;11.10;99.90;;;;;;4858000;29;20440;-71
2023/04/09 11:05:28;;;;;;;38.80;25.10;;;11.30;99.90;;;;;;4876167;29;20296;-70
2023/04/09 11:08:11;;;;;;;38.33;26.00;;;11.40;99.90;;;;;;4876589;29;20383;-71
2023/04/09 11:10:44;;;;;;;35.83;24.70;;;11.60;99.90;;;;;;4854415;29;20284;-71
2023/04/09 11:13:17;;;;;;;37.13;25.20;;;11.80;99.90;;;;;;4873195;29;20292;-71
2023/04/09 11:15:44;;;;;;;37.47;23.80;;;12.00;99.90;;;;;;4872096;29;20300;-71
2023/04/09 11:18:29;;;;;;;36.13;23.57;;;12.20;99.90;;;;;;4875145;29;20305;-71
2023/04/09 11:20:55;;;;;;;34.60;23.83;;;12.50;99.90;;;;;;4891798;29;20292;-71
2023/04/09 11:23:22;;;;;;;36.73;24.77;;;12.80;99.90;;;;;;4868801;29;20295;-71
2023/04/09 11:25:50;;;;;;;35.57;24.37;;;13.00;99.90;;;;;;4851907;29;21203;-71
2023/04/09 11:28:16;;;;;;;33.40;22.53;;;13.10;99.90;;;;;;4874831;29;20320;-72
2023/04/09 11:30:42;;;;;;;34.30;22.63;;;13.00;99.90;;;;;;4878642;29;20303;-71
2023/04/09 11:33:08;;;;;;;32.17;23.23;;;12.90;99.90;;;;;;4865491;29;20289;-72
2023/04/09 11:35:35;;;;;;;34.83;24.33;;;12.70;99.90;;;;;;4877330;29;20285;-71
2023/04/09 11:38:07;;;;;;;34.33;24.13;;;12.70;99.90;;;;;;4876984;29;20044;-71
2023/04/09 11:40:33;;;;;;;33.10;23.63;;;12.60;99.90;;;;;;4859745;29;20289;-71
2023/04/09 11:42:59;;;;;;;36.33;23.20;;;12.50;99.90;;;;;;4862950;29;20320;-71
2023/04/09 11:45:28;;;;;;;32.90;23.17;;;12.50;99.90;;;;;;4872906;29;20129;-72
2023/04/09 11:47:54;;;;;;;32.03;22.87;;;12.70;99.90;;;;;;4875569;29;20300;-72
2023/04/09 11:50:21;;;;;;;36.13;24.20;;;12.90;99.90;;;;;;4878565;29;20338;-73
2023/04/09 11:52:49;;;;;;;34.23;24.03;;;13.00;99.90;;;;;;4878772;29;20059;-72
2023/04/09 11:55:26;;;;;;;31.10;23.33;;;13.00;99.90;;;;;;4864579;29;20300;-72
2023/04/09 11:57:59;;;;;;;33.30;24.07;;;12.90;99.90;;;;;;4895570;29;20304;-72
2023/04/09 12:00:26;;;;;;;34.50;23.63;;;12.90;99.90;;;;;;4877967;29;20277;-71
2023/04/09 12:03:02;;;;;;;33.07;23.00;;;13.10;99.90;;;;;;4879891;29;20392;-71
2023/04/09 12:05:30;;;;;;;31.80;22.63;;;13.30;99.90;;;;;;4867012;29;20331;-73
2023/04/09 12:08:07;;;;;;;34.53;23.67;;;13.30;99.90;;;;;;4880556;29;20336;-73
2023/04/09 12:10:37;;;;;;;33.00;23.43;;;13.30;99.90;;;;;;4880646;29;20296;-74
2023/04/09 12:13:11;;;;;;;33.60;23.50;;;13.40;99.90;;;;;;4880017;29;20375;-73
2023/04/09 12:15:42;;;;;;;32.27;22.97;;;13.30;99.90;;;;;;4880608;29;20363;-73
2023/04/09 12:18:09;;;;;;;32.13;22.50;;;13.40;99.90;;;;;;4880429;29;20313;-73
2023/04/09 12:20:42;;;;;;;29.57;21.80;;;13.60;99.90;;;;;;4873099;29;20300;-73
2023/04/09 12:23:09;;;;;;;29.80;21.93;;;13.80;99.90;;;;;;4865178;29;20311;-72
2023/04/09 12:25:36;;;;;;;31.60;22.87;;;14.00;99.90;;;;;;4878407;29;20388;-72
2023/04/09 12:28:03;;;;;;;31.03;22.43;;;14.20;99.90;;;;;;4881306;29;20305;-72
2023/04/09 12:30:29;;;;;;;30.00;22.80;;;14.30;99.90;;;;;;4881110;29;20284;-72
2023/04/09 12:32:55;;;;;;;29.83;20.70;;;14.40;99.90;;;;;;4876839;29;20380;-72
2023/04/09 12:35:21;;;;;;;30.43;21.97;;;14.30;99.90;;;;;;4882353;29;20054;-72
2023/04/09 12:37:47;;;;;;;28.27;20.90;;;14.30;99.90;;;;;;4882144;29;20037;-72
2023/04/09 12:40:14;;;;;;;27.13;19.90;;;14.30;99.90;;;;;;4878553;29;20312;-72